createdAt,value
2019-01-17T00:01:53.037Z,6.20
2019-01-17T00:04:38.762Z,6.20
2019-01-17T00:07:16.691Z,6.30
2019-01-17T00:09:51.234Z,6.30
2019-01-17T00:12:42.446Z,6.30
2019-01-17T00:15:24.037Z,6.30
2019-01-17T00:18:09.684Z,6.30
2019-01-17T00:20:56.648Z,6.30
2019-01-17T00:23:42.176Z,6.30
2019-01-17T00:26:35.283Z,6.30
2019-01-17T00:29:22.410Z,6.30
2019-01-17T00:32:01.429Z,6.40
2019-01-17T00:34:48.393Z,6.40
2019-01-17T00:37:41.137Z,6.40
2019-01-17T00:40:38.948Z,6.40
2019-01-17T00:43:24.806Z,6.40
2019-01-17T00:46:10.538Z,6.40
2019-01-17T00:49:07.010Z,6.40
2019-01-17T00:52:02.723Z,6.40
2019-01-17T00:55:07.856Z,6.40
2019-01-17T00:57:58.010Z,6.40
2019-01-17T01:00:47.437Z,6.30
2019-01-17T01:03:33.020Z,6.30
2019-01-17T01:06:18.896Z,6.30
2019-01-17T01:09:08.970Z,6.30
2019-01-17T01:11:54.472Z,6.30
2019-01-17T01:14:40.490Z,6.30
2019-01-17T01:17:32.001Z,6.30
2019-01-17T01:20:09.732Z,6.20
2019-01-17T01:22:59.338Z,6.20
2019-01-17T01:25:49.074Z,6.20
2019-01-17T01:28:39.045Z,6.20
2019-01-17T01:31:24.447Z,6.20
2019-01-17T01:34:17.655Z,6.10
2019-01-17T01:37:04.640Z,6.20
2019-01-17T01:39:50.036Z,6.20
2019-01-17T01:42:39.997Z,6.20
2019-01-17T01:45:30.953Z,6.10
2019-01-17T01:48:20.950Z,6.10
2019-01-17T01:51:07.965Z,6.10
2019-01-17T01:53:35.334Z,6.10
2019-01-17T01:56:02.795Z,6.10
2019-01-17T01:58:30.271Z,6.10
2019-01-17T02:00:57.643Z,6.10
2019-01-17T02:03:25.123Z,6.10
2019-01-17T02:05:52.515Z,6.00
2019-01-17T02:08:19.939Z,6.00
2019-01-17T02:10:47.322Z,6.00
2019-01-17T02:13:14.779Z,6.00
2019-01-17T02:15:42.241Z,6.00
2019-01-17T02:18:09.701Z,6.00
2019-01-17T02:20:37.352Z,6.00
2019-01-17T02:23:04.932Z,6.00
2019-01-17T02:25:32.408Z,6.00
2019-01-17T02:27:59.877Z,6.00
2019-01-17T02:30:27.325Z,5.90
2019-01-17T02:32:54.813Z,5.90
2019-01-17T02:35:22.272Z,5.90
2019-01-17T02:37:49.717Z,5.80
2019-01-17T02:40:17.146Z,5.80
2019-01-17T02:42:44.647Z,5.80
2019-01-17T02:45:13.482Z,5.80
2019-01-17T02:47:40.931Z,5.80
2019-01-17T02:50:09.093Z,5.70
2019-01-17T02:52:36.567Z,5.70
2019-01-17T02:55:04.862Z,5.70
2019-01-17T02:57:32.298Z,5.70
2019-01-17T02:59:59.779Z,5.70
2019-01-17T03:02:27.225Z,5.70
2019-01-17T03:04:54.687Z,5.70
2019-01-17T03:07:22.146Z,5.70
2019-01-17T03:09:49.617Z,5.70
2019-01-17T03:12:17.075Z,5.60
2019-01-17T03:14:44.552Z,5.60
2019-01-17T03:17:12.029Z,5.60
2019-01-17T03:19:39.699Z,5.60
2019-01-17T03:22:07.179Z,5.60
2019-01-17T03:24:34.498Z,5.60
2019-01-17T03:27:01.955Z,5.50
2019-01-17T03:29:29.447Z,5.50
2019-01-17T03:31:56.896Z,5.40
2019-01-17T03:34:24.393Z,5.40
2019-01-17T03:36:51.833Z,5.30
2019-01-17T03:39:19.154Z,5.30
2019-01-17T03:41:46.659Z,5.20
2019-01-17T03:44:14.096Z,5.20
2019-01-17T03:47:01.063Z,5.20
2019-01-17T03:49:28.871Z,5.10
2019-01-17T03:51:56.242Z,5.10
2019-01-17T03:54:23.747Z,5.10
2019-01-17T03:56:51.195Z,5.00
2019-01-17T03:59:18.662Z,5.10
2019-01-17T04:01:46.119Z,5.10
2019-01-17T04:04:13.580Z,5.00
2019-01-17T04:06:41.045Z,5.00
2019-01-17T04:09:08.503Z,5.00
2019-01-17T04:11:35.951Z,5.00
2019-01-17T04:14:03.817Z,5.00
2019-01-17T04:16:31.309Z,5.00
2019-01-17T04:18:58.771Z,4.90
2019-01-17T04:21:26.224Z,4.90
2019-01-17T04:23:53.708Z,4.90
2019-01-17T04:26:21.115Z,4.90
2019-01-17T04:28:48.578Z,5.00
2019-01-17T04:31:16.031Z,5.00
2019-01-17T04:33:43.374Z,5.00
2019-01-17T04:36:10.837Z,5.00
2019-01-17T04:38:38.279Z,5.00
2019-01-17T04:41:05.767Z,5.00
2019-01-17T04:43:33.188Z,5.00
2019-01-17T04:46:00.545Z,5.00
2019-01-17T04:48:27.885Z,5.10
2019-01-17T04:50:55.297Z,5.10
2019-01-17T04:53:22.775Z,5.20
2019-01-17T04:55:50.224Z,5.20
2019-01-17T04:58:17.707Z,5.20
2019-01-17T05:00:45.264Z,5.30
2019-01-17T05:03:12.635Z,5.30
2019-01-17T05:05:40.085Z,5.30
2019-01-17T05:08:07.469Z,5.30
2019-01-17T05:10:34.924Z,5.30
2019-01-17T05:13:02.359Z,5.40
2019-01-17T05:15:29.749Z,5.40
2019-01-17T05:17:57.180Z,5.40
2019-01-17T05:20:24.539Z,5.40
2019-01-17T05:22:51.883Z,5.50
2019-01-17T05:25:19.349Z,5.50
2019-01-17T05:27:46.832Z,5.50
2019-01-17T05:30:16.532Z,5.50
2019-01-17T05:32:44.007Z,5.50
2019-01-17T05:35:11.539Z,5.60
2019-01-17T05:37:38.981Z,5.60
2019-01-17T05:40:09.444Z,5.60
2019-01-17T05:42:36.824Z,5.60
2019-01-17T05:45:05.110Z,5.70
2019-01-17T05:47:32.528Z,5.70
2019-01-17T05:49:59.969Z,5.70
2019-01-17T05:52:27.418Z,5.70
2019-01-17T05:54:54.810Z,5.70
2019-01-17T05:57:22.260Z,5.70
2019-01-17T05:59:49.704Z,5.70
2019-01-17T06:02:17.186Z,5.70
2019-01-17T06:04:44.643Z,5.60
2019-01-17T06:07:12.034Z,5.60
2019-01-17T06:09:39.892Z,5.60
2019-01-17T06:12:07.362Z,5.50
2019-01-17T06:14:34.842Z,5.50
2019-01-17T06:17:02.340Z,5.40
2019-01-17T06:19:29.794Z,5.40
2019-01-17T06:21:57.172Z,5.40
2019-01-17T06:24:24.648Z,5.30
2019-01-17T06:26:52.028Z,5.40
2019-01-17T06:29:19.481Z,5.30
2019-01-17T06:31:46.930Z,5.30
2019-01-17T06:34:14.309Z,5.30
2019-01-17T06:36:41.793Z,5.30
2019-01-17T06:39:09.347Z,5.30
2019-01-17T06:41:36.715Z,5.30
2019-01-17T06:44:04.185Z,5.30
2019-01-17T06:46:31.556Z,5.30
2019-01-17T06:48:58.929Z,5.20
2019-01-17T06:51:26.744Z,5.20
2019-01-17T06:53:54.247Z,5.20
2019-01-17T06:56:21.682Z,5.20
2019-01-17T06:58:49.244Z,5.20
2019-01-17T07:01:16.671Z,5.20
2019-01-17T07:03:44.036Z,5.20
2019-01-17T07:06:11.416Z,5.20
2019-01-17T07:08:38.877Z,5.10
2019-01-17T07:11:06.300Z,5.10
2019-01-17T07:13:33.794Z,5.10
2019-01-17T07:16:01.234Z,5.10
2019-01-17T07:18:28.670Z,5.10
2019-01-17T07:20:56.127Z,5.10
2019-01-17T07:23:23.587Z,5.10
2019-01-17T07:25:51.072Z,5.10
2019-01-17T07:28:18.430Z,5.10
2019-01-17T07:30:45.856Z,5.00
2019-01-17T07:33:13.241Z,5.00
2019-01-17T07:35:40.753Z,5.00
2019-01-17T07:38:08.220Z,5.00
2019-01-17T07:40:35.657Z,5.00
2019-01-17T07:43:03.036Z,5.00
2019-01-17T07:45:30.634Z,4.90
2019-01-17T07:47:58.130Z,5.00
2019-01-17T07:50:25.585Z,4.90
2019-01-17T07:52:53.039Z,5.00
2019-01-17T07:55:20.486Z,5.00
2019-01-17T07:57:47.908Z,5.00
2019-01-17T08:00:17.689Z,5.00
2019-01-17T08:02:45.129Z,5.00
2019-01-17T08:05:12.730Z,5.00
2019-01-17T08:07:40.268Z,5.00
2019-01-17T08:10:09.689Z,5.00
2019-01-17T08:12:37.171Z,5.00
2019-01-17T08:15:04.897Z,5.00
2019-01-17T08:17:32.269Z,5.00
2019-01-17T08:19:59.629Z,5.00
2019-01-17T08:22:27.006Z,5.00
2019-01-17T08:24:54.371Z,5.00
2019-01-17T08:27:21.719Z,5.00
2019-01-17T08:29:49.206Z,5.10
2019-01-17T08:32:16.638Z,5.00
2019-01-17T08:34:44.109Z,5.00
2019-01-17T08:37:11.663Z,5.00
2019-01-17T08:39:39.047Z,4.90
2019-01-17T08:42:06.495Z,4.90
2019-01-17T08:44:33.947Z,4.90
2019-01-17T08:47:01.288Z,4.90
2019-01-17T08:49:28.729Z,4.90
2019-01-17T08:51:56.157Z,4.90
2019-01-17T08:54:23.629Z,4.90
2019-01-17T08:56:51.041Z,5.00
2019-01-17T08:59:18.386Z,4.90
2019-01-17T09:01:45.848Z,4.90
2019-01-17T09:04:13.165Z,4.90
2019-01-17T09:06:40.535Z,4.90
2019-01-17T09:09:08.839Z,4.90
2019-01-17T09:11:36.299Z,4.90
2019-01-17T09:14:03.949Z,4.90
2019-01-17T09:16:31.305Z,4.90
2019-01-17T09:18:58.803Z,4.90
2019-01-17T09:21:26.249Z,4.90
2019-01-17T09:23:53.699Z,4.90
2019-01-17T09:26:21.037Z,4.90
2019-01-17T09:28:48.498Z,5.00
2019-01-17T09:31:15.865Z,5.00
2019-01-17T09:33:43.202Z,5.00
2019-01-17T09:36:10.660Z,5.00
2019-01-17T09:38:38.091Z,4.90
2019-01-17T09:41:05.454Z,4.90
2019-01-17T09:43:32.933Z,4.80
2019-01-17T09:46:00.284Z,4.80
2019-01-17T09:48:27.720Z,4.70
2019-01-17T09:50:55.188Z,4.80
2019-01-17T09:53:26.046Z,4.80
2019-01-17T09:55:53.478Z,4.80
2019-01-17T09:58:20.953Z,4.80
2019-01-17T10:00:48.285Z,4.90
2019-01-17T10:03:15.720Z,4.90
2019-01-17T10:05:43.084Z,4.90
2019-01-17T10:08:10.537Z,5.00
2019-01-17T10:10:38.034Z,5.00
2019-01-17T10:13:05.494Z,5.00
2019-01-17T10:15:42.450Z,5.10
2019-01-17T10:18:46.228Z,5.20
2019-01-17T10:21:53.602Z,5.30
2019-01-17T10:24:45.507Z,5.30
2019-01-17T10:27:51.380Z,5.40
2019-01-17T10:30:42.073Z,5.50
2019-01-17T10:33:44.304Z,5.70
2019-01-17T10:36:49.564Z,5.90
2019-01-17T10:39:53.856Z,6.10
2019-01-17T10:42:59.167Z,6.30
2019-01-17T10:46:05.816Z,6.50
2019-01-17T10:49:33.192Z,6.70
2019-01-17T10:52:51.383Z,6.80
2019-01-17T10:55:35.627Z,6.80
2019-01-17T10:58:22.328Z,6.80
2019-01-17T11:05:13.586Z,6.90
2019-01-17T11:08:10.950Z,7.10
2019-01-17T11:11:35.704Z,7.10
2019-01-17T11:14:41.825Z,6.80
2019-01-17T11:17:35.910Z,6.30
2019-01-17T11:20:10.716Z,5.90
2019-01-17T11:23:09.574Z,5.80
2019-01-17T11:26:11.150Z,5.60
2019-01-17T11:29:15.642Z,5.50
2019-01-17T11:32:13.208Z,5.20
2019-01-17T11:35:21.730Z,5.10
2019-01-17T11:38:28.191Z,5.00
2019-01-17T11:41:32.664Z,4.80
2019-01-17T11:44:32.655Z,4.80
2019-01-17T11:47:47.029Z,4.60
2019-01-17T11:50:40.539Z,4.50
2019-01-17T11:53:35.869Z,4.40
2019-01-17T11:56:22.247Z,4.40
2019-01-17T11:59:30.558Z,4.50
2019-01-17T12:02:43.859Z,4.60
2019-01-17T12:05:11.315Z,4.70
2019-01-17T12:07:38.768Z,5.10
2019-01-17T12:10:07.120Z,5.20
2019-01-17T12:12:34.766Z,5.20
2019-01-17T12:15:02.230Z,5.20
2019-01-17T12:17:29.715Z,5.20
2019-01-17T12:19:57.132Z,5.10
2019-01-17T12:22:24.863Z,5.10
2019-01-17T12:24:52.348Z,5.10
2019-01-17T12:27:19.709Z,5.00
2019-01-17T12:29:47.164Z,4.90
2019-01-17T12:32:14.653Z,4.80
2019-01-17T12:35:01.567Z,4.70
2019-01-17T12:37:28.941Z,4.70
2019-01-17T12:39:56.379Z,4.60
2019-01-17T12:42:23.860Z,4.60
2019-01-17T12:44:51.513Z,4.70
2019-01-17T12:47:18.851Z,4.80
2019-01-17T12:49:49.562Z,4.80
2019-01-17T12:52:17.001Z,4.70
2019-01-17T12:54:44.366Z,4.70
2019-01-17T12:57:11.702Z,4.70
2019-01-17T12:59:39.135Z,4.70
2019-01-17T13:02:06.499Z,4.80
2019-01-17T13:04:33.849Z,4.80
2019-01-17T13:07:01.226Z,5.00
2019-01-17T13:09:30.387Z,5.10
2019-01-17T13:11:57.831Z,5.90
2019-01-17T13:14:25.293Z,7.00
2019-01-17T13:16:52.723Z,7.60
2019-01-17T13:19:20.048Z,7.70
2019-01-17T13:21:47.485Z,7.80
2019-01-17T13:24:14.873Z,8.50
2019-01-17T13:26:42.315Z,8.50
2019-01-17T13:29:09.781Z,7.70
2019-01-17T13:31:37.276Z,7.10
2019-01-17T13:34:04.739Z,6.40
2019-01-17T13:36:32.109Z,6.10
2019-01-17T13:38:59.551Z,5.80
2019-01-17T13:41:27.040Z,5.60
2019-01-17T13:43:54.559Z,5.50
2019-01-17T13:46:22.041Z,5.50
2019-01-17T13:48:49.494Z,5.70
2019-01-17T13:51:16.917Z,6.10
2019-01-17T13:53:44.399Z,7.00
2019-01-17T13:56:11.842Z,7.50
2019-01-17T13:58:39.309Z,7.90
2019-01-17T14:01:06.820Z,8.10
2019-01-17T14:03:34.309Z,8.10
2019-01-17T14:06:01.776Z,8.40
2019-01-17T14:08:30.611Z,8.50
2019-01-17T14:10:58.183Z,7.90
2019-01-17T14:13:25.553Z,7.10
2019-01-17T14:15:52.945Z,6.60
2019-01-17T14:18:20.423Z,7.10
2019-01-17T14:20:47.931Z,7.70
2019-01-17T14:23:15.415Z,7.40
2019-01-17T14:25:44.989Z,6.80
2019-01-17T14:28:12.441Z,7.20
2019-01-17T14:30:39.877Z,7.70
2019-01-17T14:33:07.296Z,8.00
2019-01-17T14:35:34.767Z,7.40
2019-01-17T14:38:02.173Z,6.80
2019-01-17T14:40:29.655Z,6.50
2019-01-17T14:42:57.048Z,6.70
2019-01-17T14:45:24.531Z,7.30
2019-01-17T14:47:52.011Z,7.10
2019-01-17T14:50:29.189Z,7.20
2019-01-17T14:52:56.995Z,7.60
2019-01-17T14:57:54.919Z,7.30
2019-01-17T15:00:25.172Z,6.90
2019-01-17T15:05:29.135Z,6.30
2019-01-17T15:07:56.627Z,6.10
2019-01-17T15:10:38.268Z,5.90
2019-01-17T15:13:05.727Z,5.70
2019-01-17T15:15:33.332Z,5.70
2019-01-17T15:18:00.814Z,5.60
2019-01-17T15:20:28.288Z,5.40
2019-01-17T15:22:55.662Z,5.30
2019-01-17T15:25:23.086Z,5.20
2019-01-17T15:27:50.552Z,5.10
2019-01-17T15:30:20.210Z,5.10
2019-01-17T15:32:47.928Z,5.00
2019-01-17T15:35:15.462Z,5.00
2019-01-17T15:37:42.935Z,4.90
2019-01-17T15:40:16.112Z,4.90
2019-01-17T15:42:43.585Z,5.00
2019-01-17T15:45:11.190Z,4.90
2019-01-17T15:47:38.712Z,4.90
2019-01-17T15:50:06.666Z,4.90
2019-01-17T15:52:34.238Z,4.80
2019-01-17T15:55:01.741Z,4.90
2019-01-17T15:57:33.880Z,4.80
2019-01-17T15:59:58.486Z,4.80
2019-01-17T16:02:29.336Z,4.80
2019-01-17T16:04:56.836Z,4.80
2019-01-17T16:07:24.282Z,4.80
2019-01-17T16:09:51.679Z,4.80
2019-01-17T16:12:20.046Z,4.70
2019-01-17T16:14:47.554Z,4.70
2019-01-17T16:17:15.054Z,4.70
2019-01-17T16:19:44.370Z,4.70
2019-01-17T16:22:11.940Z,4.70
2019-01-17T16:24:39.422Z,4.70
2019-01-17T16:27:08.110Z,4.60
2019-01-17T16:29:35.580Z,4.60
2019-01-17T16:34:36.234Z,4.60
2019-01-17T16:37:03.728Z,4.60
2019-01-17T16:39:33.433Z,4.60
2019-01-17T16:42:00.931Z,4.50
2019-01-17T16:44:28.436Z,4.40
2019-01-17T16:46:55.873Z,4.20
2019-01-17T16:49:23.325Z,4.20
2019-01-17T16:51:50.740Z,4.20
2019-01-17T16:54:18.166Z,4.20
2019-01-17T16:56:45.688Z,4.20
2019-01-17T16:59:13.123Z,4.00
2019-01-17T17:01:40.592Z,3.90
2019-01-17T17:04:08.052Z,3.80
2019-01-17T17:06:35.532Z,3.60
2019-01-17T17:09:06.792Z,3.40
2019-01-17T17:11:34.173Z,3.20
2019-01-17T17:14:01.554Z,3.10
2019-01-17T17:16:28.954Z,3.10
2019-01-17T17:18:58.178Z,3.00
2019-01-17T17:21:27.893Z,3.00
2019-01-17T17:23:56.610Z,3.00
2019-01-17T17:26:25.296Z,3.00
2019-01-17T17:28:52.971Z,3.00
2019-01-17T17:31:22.732Z,3.00
2019-01-17T17:33:50.232Z,3.00
2019-01-17T17:36:22.162Z,3.00
2019-01-17T17:38:49.700Z,3.00
2019-01-17T17:41:17.169Z,3.00
2019-01-17T17:43:44.674Z,3.00
2019-01-17T17:46:12.793Z,3.00
2019-01-17T17:51:17.508Z,3.00
2019-01-17T17:53:50.003Z,3.00
2019-01-17T17:56:17.619Z,3.00
2019-01-17T17:58:45.195Z,2.90
2019-01-17T18:04:30.835Z,3.00
2019-01-17T18:06:58.913Z,3.10
2019-01-17T18:09:35.887Z,3.10
2019-01-17T18:14:54.760Z,3.10
2019-01-17T18:17:27.903Z,3.10
2019-01-17T18:19:55.343Z,3.10
2019-01-17T18:22:22.911Z,3.00
2019-01-17T18:24:50.497Z,3.10
2019-01-17T18:27:23.782Z,3.10
2019-01-17T18:29:58.750Z,3.10
2019-01-17T18:32:26.309Z,3.10
2019-01-17T18:34:53.684Z,3.10
2019-01-17T18:37:23.426Z,3.10
2019-01-17T18:39:50.923Z,3.10
2019-01-17T18:42:18.361Z,3.10
2019-01-17T18:44:45.787Z,3.00
2019-01-17T18:47:13.257Z,3.00
2019-01-17T18:49:45.711Z,2.90
2019-01-17T18:52:13.203Z,2.90
2019-01-17T18:54:40.845Z,2.90
2019-01-17T18:57:08.411Z,2.80
2019-01-17T18:59:35.873Z,2.80
2019-01-17T19:02:03.448Z,2.80
2019-01-17T19:04:30.916Z,2.80
2019-01-17T19:06:58.789Z,2.80
2019-01-17T19:09:26.269Z,2.90
2019-01-17T19:11:53.707Z,2.90
2019-01-17T19:14:21.198Z,2.90
2019-01-17T19:16:48.659Z,2.90
2019-01-17T19:19:16.011Z,2.90
2019-01-17T19:21:43.529Z,2.90
2019-01-17T19:24:11.017Z,3.00
2019-01-17T19:26:38.485Z,3.00
2019-01-17T19:29:05.957Z,3.00
2019-01-17T19:31:33.321Z,3.00
2019-01-17T19:34:00.709Z,3.10
2019-01-17T19:36:28.161Z,3.10
2019-01-17T19:38:55.543Z,3.20
2019-01-17T19:41:22.929Z,3.20
2019-01-17T19:43:50.316Z,3.10
2019-01-17T19:46:17.749Z,3.20
2019-01-17T19:48:45.091Z,3.20
2019-01-17T19:51:12.598Z,3.20
2019-01-17T19:53:40.036Z,3.20
2019-01-17T19:59:06.222Z,3.30
2019-01-17T20:01:33.678Z,3.30
2019-01-17T20:04:01.152Z,3.40
2019-01-17T20:06:28.641Z,3.40
2019-01-17T20:08:57.547Z,3.40
2019-01-17T20:11:25.030Z,3.40
2019-01-17T20:13:52.520Z,3.40
2019-01-17T20:16:19.958Z,3.30
2019-01-17T20:18:47.432Z,3.30
2019-01-17T20:21:14.917Z,3.20
2019-01-17T20:23:42.331Z,3.10
2019-01-17T20:26:09.752Z,2.90
2019-01-17T20:28:40.898Z,2.90
2019-01-17T20:31:08.404Z,2.90
2019-01-17T20:33:35.900Z,2.80
2019-01-17T20:36:04.061Z,2.90
2019-01-17T20:38:31.568Z,2.90
2019-01-17T20:40:59.005Z,3.00
2019-01-17T20:43:26.384Z,3.00
2019-01-17T20:45:53.874Z,3.00
2019-01-17T20:48:21.354Z,3.00
2019-01-17T20:50:48.858Z,3.00
2019-01-17T20:53:17.502Z,2.90
2019-01-17T20:55:45.163Z,2.90
2019-01-17T20:58:12.531Z,2.90
2019-01-17T21:00:44.620Z,2.90
2019-01-17T21:03:14.784Z,3.00
2019-01-17T21:05:42.241Z,3.00
2019-01-17T21:08:09.655Z,3.00
2019-01-17T21:10:37.154Z,3.00
2019-01-17T21:13:04.611Z,3.00
2019-01-17T21:15:31.966Z,3.00
2019-01-17T21:17:59.418Z,3.00
2019-01-17T21:20:26.824Z,3.00
2019-01-17T21:22:54.294Z,3.00
2019-01-17T21:25:21.772Z,3.00
2019-01-17T21:27:49.210Z,3.10
2019-01-17T21:30:19.220Z,3.10
2019-01-17T21:32:46.711Z,3.20
2019-01-17T21:35:14.186Z,3.20
2019-01-17T21:37:41.661Z,3.20
2019-01-17T21:40:11.712Z,3.20
2019-01-17T21:42:39.172Z,3.20
2019-01-17T21:45:09.108Z,3.20
2019-01-17T21:47:36.554Z,3.10
2019-01-17T21:50:07.470Z,3.10
2019-01-17T21:52:34.936Z,3.10
2019-01-17T21:55:02.352Z,3.10
2019-01-17T21:57:29.832Z,3.10
2019-01-17T21:59:57.164Z,3.10
2019-01-17T22:02:24.565Z,3.00
2019-01-17T22:04:51.994Z,3.00
2019-01-17T22:07:19.378Z,3.00
2019-01-17T22:09:46.861Z,2.90
2019-01-17T22:12:14.346Z,2.90
2019-01-17T22:14:41.799Z,2.90
2019-01-17T22:17:09.248Z,2.90
2019-01-17T22:19:36.629Z,2.90
2019-01-17T22:22:06.088Z,2.90
2019-01-17T22:24:33.443Z,2.90
2019-01-17T22:27:02.559Z,2.80
2019-01-17T22:29:30.044Z,2.70
2019-01-17T22:31:57.532Z,2.60
2019-01-17T22:34:24.913Z,2.50
2019-01-17T22:36:52.298Z,2.50
2019-01-17T22:39:20.760Z,2.50
2019-01-17T22:41:48.158Z,2.40
2019-01-17T22:44:15.724Z,2.40
2019-01-17T22:46:43.146Z,2.40
2019-01-17T22:49:10.616Z,2.30
2019-01-17T22:51:37.959Z,2.30
2019-01-17T22:54:05.423Z,2.30
2019-01-17T22:56:32.920Z,2.30
2019-01-17T22:59:00.364Z,2.30
2019-01-17T23:01:28.616Z,2.30
2019-01-17T23:03:57.808Z,2.30
2019-01-17T23:06:25.197Z,2.30
2019-01-17T23:08:52.648Z,2.30
2019-01-17T23:11:20.091Z,2.40
2019-01-17T23:13:47.567Z,2.40
2019-01-17T23:16:15.014Z,2.40
2019-01-17T23:18:42.460Z,2.40
2019-01-17T23:21:09.920Z,2.30
2019-01-17T23:23:38.428Z,2.30
2019-01-17T23:26:05.977Z,2.30
2019-01-17T23:28:33.460Z,2.40
2019-01-17T23:31:00.948Z,2.40
2019-01-17T23:33:28.399Z,2.40
2019-01-17T23:35:55.879Z,2.60
2019-01-17T23:38:23.229Z,2.60
2019-01-17T23:40:50.681Z,2.70
2019-01-17T23:43:18.119Z,2.80
2019-01-17T23:45:45.579Z,2.70
2019-01-17T23:48:13.065Z,2.80
2019-01-17T23:50:40.512Z,2.80
2019-01-17T23:53:07.993Z,2.70
2019-01-17T23:55:35.435Z,2.60
2019-01-17T23:58:02.787Z,2.60
